createdAt,value
2018-05-15T00:01:03.424Z,16.97
2018-05-15T00:03:30.989Z,16.98
2018-05-15T00:05:58.517Z,16.86
2018-05-15T00:08:26.046Z,16.76
2018-05-15T00:10:54.249Z,16.65
2018-05-15T00:13:21.785Z,16.74
2018-05-15T00:15:49.314Z,16.69
2018-05-15T00:18:16.856Z,16.63
2018-05-15T00:20:45.382Z,16.44
2018-05-15T00:23:12.921Z,16.33
2018-05-15T00:25:40.591Z,16.35
2018-05-15T00:28:08.129Z,16.35
2018-05-15T00:30:35.665Z,16.44
2018-05-15T00:33:03.224Z,16.46
2018-05-15T00:35:30.748Z,16.51
2018-05-15T00:37:58.277Z,16.48
2018-05-15T00:40:26.359Z,16.29
2018-05-15T00:42:53.901Z,16.48
2018-05-15T00:45:21.428Z,16.39
2018-05-15T00:47:48.988Z,16.36
2018-05-15T00:50:16.522Z,16.43
2018-05-15T00:52:44.114Z,16.10
2018-05-15T00:55:23.997Z,16.32
2018-05-15T00:57:51.529Z,16.25
2018-05-15T01:00:19.053Z,16.48
2018-05-15T01:02:46.620Z,16.45
2018-05-15T01:05:14.149Z,16.28
2018-05-15T01:07:41.677Z,16.33
2018-05-15T01:10:09.258Z,16.27
2018-05-15T01:12:36.785Z,16.38
2018-05-15T01:15:04.321Z,16.48
2018-05-15T01:17:32.029Z,16.44
2018-05-15T01:19:59.651Z,16.63
2018-05-15T01:22:27.184Z,16.59
2018-05-15T01:24:54.929Z,16.48
2018-05-15T01:27:22.452Z,16.57
2018-05-15T01:29:49.988Z,16.31
2018-05-15T01:32:17.692Z,16.55
2018-05-15T01:34:45.220Z,16.72
2018-05-15T01:37:12.757Z,16.71
2018-05-15T01:39:40.409Z,16.79
2018-05-15T01:42:07.951Z,16.66
2018-05-15T01:44:35.477Z,16.67
2018-05-15T01:47:03.253Z,16.60
2018-05-15T01:49:30.865Z,16.62
2018-05-15T01:51:58.393Z,16.72
2018-05-15T01:54:26.138Z,16.57
2018-05-15T01:56:53.667Z,16.76
2018-05-15T01:59:21.192Z,16.79
2018-05-15T02:01:48.744Z,16.78
2018-05-15T02:04:16.277Z,16.90
2018-05-15T02:06:43.805Z,16.80
2018-05-15T02:09:11.604Z,16.68
2018-05-15T02:11:39.134Z,16.68
2018-05-15T02:14:06.665Z,16.69
2018-05-15T02:16:34.472Z,16.72
2018-05-15T02:19:02.025Z,16.80
2018-05-15T02:21:29.552Z,16.78
2018-05-15T02:23:57.465Z,16.75
2018-05-15T02:26:24.989Z,16.77
2018-05-15T02:28:52.530Z,16.77
2018-05-15T02:31:20.560Z,16.75
2018-05-15T02:33:48.080Z,16.59
2018-05-15T02:36:15.604Z,16.40
2018-05-15T02:38:43.333Z,16.52
2018-05-15T02:41:10.860Z,16.51
2018-05-15T02:43:38.385Z,16.57
2018-05-15T02:46:06.212Z,16.61
2018-05-15T02:48:33.732Z,16.56
2018-05-15T02:51:01.252Z,16.51
2018-05-15T02:53:29.526Z,16.57
2018-05-15T02:55:57.049Z,16.55
2018-05-15T02:58:24.569Z,16.47
2018-05-15T03:00:52.128Z,16.43
2018-05-15T03:03:19.656Z,16.36
2018-05-15T03:05:47.181Z,16.39
2018-05-15T03:08:15.997Z,16.32
2018-05-15T03:10:43.528Z,16.34
2018-05-15T03:13:11.053Z,16.28
2018-05-15T03:15:38.625Z,16.30
2018-05-15T03:18:06.146Z,16.33
2018-05-15T03:20:33.716Z,16.26
2018-05-15T03:23:01.455Z,16.13
2018-05-15T03:25:29.028Z,16.23
2018-05-15T03:27:56.553Z,16.23
2018-05-15T03:30:24.224Z,16.21
2018-05-15T03:32:51.748Z,16.15
2018-05-15T03:35:19.273Z,16.17
2018-05-15T03:37:47.009Z,16.06
2018-05-15T03:40:14.533Z,16.08
2018-05-15T03:42:42.137Z,16.02
2018-05-15T03:45:09.889Z,16.13
2018-05-15T03:47:37.410Z,16.10
2018-05-15T03:50:04.930Z,15.98
2018-05-15T03:52:32.772Z,15.91
2018-05-15T03:55:00.300Z,15.84
2018-05-15T03:57:27.825Z,15.75
2018-05-15T03:59:55.474Z,15.53
2018-05-15T04:05:41.957Z,15.61
2018-05-15T04:08:11.877Z,15.62
2018-05-15T04:10:39.397Z,15.53
2018-05-15T04:13:07.108Z,15.43
2018-05-15T04:15:34.641Z,15.45
2018-05-15T04:18:02.160Z,15.44
2018-05-15T04:20:29.896Z,15.45
2018-05-15T04:22:57.441Z,15.63
2018-05-15T04:25:24.973Z,15.59
2018-05-15T04:27:52.540Z,15.70
2018-05-15T04:30:20.061Z,15.80
2018-05-15T04:32:47.584Z,15.85
2018-05-15T04:35:15.598Z,15.84
2018-05-15T04:37:43.121Z,16.02
2018-05-15T04:40:10.644Z,16.14
2018-05-15T04:42:39.584Z,16.36
2018-05-15T04:45:07.107Z,16.33
2018-05-15T04:47:34.641Z,16.41
2018-05-15T04:50:02.211Z,16.37
2018-05-15T04:52:29.746Z,16.30
2018-05-15T04:54:57.264Z,16.32
2018-05-15T04:57:25.038Z,16.26
2018-05-15T04:59:52.565Z,16.14
2018-05-15T05:02:20.248Z,16.29
2018-05-15T05:04:48.013Z,16.42
2018-05-15T05:07:15.552Z,16.50
2018-05-15T05:09:43.080Z,16.41
2018-05-15T05:12:10.641Z,16.37
2018-05-15T05:14:38.160Z,16.43
2018-05-15T05:17:05.676Z,16.31
2018-05-15T05:19:33.241Z,16.48
2018-05-15T05:22:00.773Z,16.65
2018-05-15T05:24:28.292Z,16.83
2018-05-15T05:26:56.046Z,16.97
2018-05-15T05:29:23.579Z,17.00
2018-05-15T05:31:51.109Z,17.15
2018-05-15T05:34:18.681Z,17.40
2018-05-15T05:36:46.202Z,17.56
2018-05-15T05:39:14.267Z,17.77
2018-05-15T05:41:41.825Z,17.89
2018-05-15T05:44:09.348Z,17.99
2018-05-15T05:46:36.869Z,18.04
2018-05-15T05:49:04.447Z,18.16
2018-05-15T05:51:31.972Z,18.26
2018-05-15T05:53:59.500Z,18.32
2018-05-15T05:56:27.274Z,18.13
2018-05-15T05:58:54.788Z,18.42
2018-05-15T06:01:22.312Z,18.53
2018-05-15T06:03:50.192Z,18.93
2018-05-15T06:06:17.792Z,19.01
2018-05-15T06:08:45.325Z,19.03
2018-05-15T06:11:12.873Z,19.21
2018-05-15T06:13:41.022Z,19.15
2018-05-15T06:16:08.554Z,19.06
2018-05-15T06:18:36.327Z,19.02
2018-05-15T06:21:03.954Z,18.95
2018-05-15T06:23:31.445Z,19.10
2018-05-15T06:25:59.112Z,19.08
2018-05-15T06:28:26.645Z,19.18
2018-05-15T06:30:54.392Z,19.19
2018-05-15T06:33:22.092Z,19.20
2018-05-15T06:35:49.613Z,18.92
2018-05-15T06:38:17.129Z,18.76
2018-05-15T06:40:44.979Z,18.70
2018-05-15T06:43:12.501Z,18.86
2018-05-15T06:45:40.025Z,19.05
2018-05-15T06:48:07.665Z,19.17
2018-05-15T06:50:35.191Z,19.10
2018-05-15T06:53:02.707Z,18.98
2018-05-15T06:55:30.268Z,19.01
2018-05-15T06:57:57.793Z,18.65
2018-05-15T07:00:25.320Z,18.31
2018-05-15T07:02:53.013Z,18.10
2018-05-15T07:05:20.549Z,17.55
2018-05-15T07:07:48.081Z,17.59
2018-05-15T07:10:15.648Z,17.67
2018-05-15T07:12:43.173Z,18.05
2018-05-15T07:15:10.696Z,18.03
2018-05-15T07:17:38.268Z,18.22
2018-05-15T07:20:05.797Z,18.60
2018-05-15T07:22:33.333Z,18.81
2018-05-15T07:25:00.890Z,18.82
2018-05-15T07:27:28.453Z,19.46
2018-05-15T07:29:55.965Z,19.41
2018-05-15T07:32:23.725Z,19.42
2018-05-15T07:34:51.300Z,19.25
2018-05-15T07:37:18.830Z,19.20
2018-05-15T07:39:46.809Z,18.74
2018-05-15T07:42:14.328Z,18.05
2018-05-15T07:44:41.860Z,17.42
2018-05-15T07:47:09.917Z,17.35
2018-05-15T07:49:37.441Z,17.59
2018-05-15T07:52:04.965Z,17.63
2018-05-15T07:54:32.880Z,18.10
2018-05-15T07:57:00.418Z,18.79
2018-05-15T07:59:27.949Z,19.19
2018-05-15T08:01:55.641Z,19.61
2018-05-15T08:04:23.228Z,20.09
2018-05-15T08:06:50.736Z,20.62
2018-05-15T08:09:18.444Z,21.10
2018-05-15T08:11:45.977Z,21.55
2018-05-15T08:14:13.504Z,21.59
2018-05-15T08:16:41.065Z,21.64
2018-05-15T08:19:08.593Z,21.19
2018-05-15T08:21:36.248Z,22.11
2018-05-15T08:24:03.805Z,22.79
2018-05-15T08:26:31.333Z,22.20
2018-05-15T08:28:58.853Z,21.94
2018-05-15T08:31:26.505Z,22.25
2018-05-15T08:33:54.028Z,23.07
2018-05-15T08:36:21.554Z,24.06
2018-05-15T08:38:49.112Z,24.66
2018-05-15T08:41:16.664Z,24.01
2018-05-15T08:43:44.189Z,24.51
2018-05-15T08:46:12.116Z,24.89
2018-05-15T08:48:39.645Z,24.26
2018-05-15T08:51:07.181Z,24.26
2018-05-15T08:53:34.924Z,24.83
2018-05-15T08:56:02.458Z,25.64
2018-05-15T08:58:29.992Z,25.80
2018-05-15T09:00:57.916Z,25.37
2018-05-15T09:03:25.458Z,25.07
2018-05-15T09:05:52.985Z,24.57
2018-05-15T09:08:20.548Z,24.69
2018-05-15T09:10:48.094Z,24.20
2018-05-15T09:13:15.613Z,24.10
2018-05-15T09:15:43.201Z,24.39
2018-05-15T09:18:10.788Z,24.41
2018-05-15T09:20:38.280Z,24.48
2018-05-15T09:23:06.213Z,25.11
2018-05-15T09:25:33.749Z,25.95
2018-05-15T09:28:01.276Z,27.31
2018-05-15T09:30:29.025Z,28.14
2018-05-15T09:32:56.551Z,26.84
2018-05-15T09:35:24.074Z,26.15
2018-05-15T09:37:51.632Z,25.75
2018-05-15T09:40:19.154Z,25.97
2018-05-15T09:42:46.683Z,26.04
2018-05-15T09:45:14.236Z,25.80
2018-05-15T09:47:41.766Z,26.80
2018-05-15T09:50:09.300Z,27.70
2018-05-15T09:52:37.010Z,27.87
2018-05-15T09:55:04.537Z,27.78
2018-05-15T09:57:32.064Z,29.65
2018-05-15T09:59:59.849Z,30.99
2018-05-15T10:02:27.377Z,31.39
2018-05-15T10:04:55.029Z,32.10
2018-05-15T10:07:22.601Z,32.77
2018-05-15T10:09:50.129Z,32.71
2018-05-15T10:12:17.665Z,31.28
2018-05-15T10:14:46.243Z,31.07
2018-05-15T10:17:13.760Z,32.48
2018-05-15T10:19:42.385Z,33.52
2018-05-15T10:22:10.072Z,32.15
2018-05-15T10:24:37.597Z,33.92
2018-05-15T10:27:05.135Z,33.68
2018-05-15T10:29:32.913Z,32.85
2018-05-15T10:32:00.438Z,31.15
2018-05-15T10:34:27.980Z,29.26
2018-05-15T10:36:56.427Z,31.27
2018-05-15T10:39:23.980Z,31.87
2018-05-15T10:41:51.501Z,33.89
2018-05-15T10:44:19.305Z,34.89
2018-05-15T10:46:46.819Z,34.97
2018-05-15T10:49:14.357Z,36.21
2018-05-15T10:51:42.204Z,34.53
2018-05-15T10:54:09.724Z,34.46
2018-05-15T10:56:37.310Z,34.79
2018-05-15T10:59:05.063Z,34.92
2018-05-15T11:01:32.592Z,36.69
2018-05-15T11:04:00.124Z,36.41
2018-05-15T11:06:27.677Z,35.45
2018-05-15T11:08:55.723Z,33.81
2018-05-15T11:11:23.277Z,32.14
2018-05-15T11:13:50.873Z,30.72
2018-05-15T11:16:18.445Z,29.86
2018-05-15T11:18:46.071Z,28.11
2018-05-15T11:21:25.611Z,27.29
2018-05-15T11:27:00.241Z,27.02
2018-05-15T11:29:28.321Z,28.13
2018-05-15T11:31:55.840Z,26.41
2018-05-15T11:34:23.629Z,28.71
2018-05-15T11:36:51.156Z,32.72
2018-05-15T11:39:18.763Z,33.89
2018-05-15T11:41:46.776Z,32.09
2018-05-15T11:44:14.495Z,30.40
2018-05-15T11:46:42.351Z,29.08
2018-05-15T11:49:10.653Z,27.79
2018-05-15T11:51:38.203Z,26.73
2018-05-15T11:54:05.237Z,25.83
2018-05-15T11:56:32.853Z,24.76
2018-05-15T11:59:00.364Z,23.74
2018-05-15T12:01:27.922Z,21.83
2018-05-15T12:03:55.519Z,21.17
2018-05-15T12:06:23.057Z,20.54
2018-05-15T12:08:50.576Z,19.94
2018-05-15T12:11:18.246Z,20.07
2018-05-15T12:13:45.772Z,20.18
2018-05-15T12:16:13.300Z,21.77
2018-05-15T12:18:41.042Z,23.01
2018-05-15T12:21:08.569Z,23.17
2018-05-15T12:23:36.102Z,23.13
2018-05-15T12:26:03.819Z,22.75
2018-05-15T12:28:31.341Z,22.66
2018-05-15T12:30:58.868Z,22.81
2018-05-15T12:33:26.426Z,24.60
2018-05-15T12:35:53.948Z,28.83
2018-05-15T12:38:21.485Z,29.53
2018-05-15T12:40:49.269Z,29.95
2018-05-15T12:43:16.793Z,30.34
2018-05-15T12:45:44.318Z,29.57
2018-05-15T12:48:12.133Z,28.06
2018-05-15T12:50:39.584Z,27.46
2018-05-15T12:53:07.100Z,27.31
2018-05-15T12:55:34.827Z,28.05
2018-05-15T12:58:02.357Z,29.71
2018-05-15T13:00:29.872Z,31.03
2018-05-15T13:02:57.418Z,33.22
2018-05-15T13:05:24.944Z,33.93
2018-05-15T13:07:52.461Z,33.92
2018-05-15T13:10:20.024Z,35.02
2018-05-15T13:12:47.541Z,33.64
2018-05-15T13:15:15.056Z,34.98
2018-05-15T13:17:42.861Z,33.93
2018-05-15T13:20:10.383Z,33.77
2018-05-15T13:22:37.905Z,35.05
2018-05-15T13:25:05.642Z,34.85
2018-05-15T13:27:33.169Z,34.59
2018-05-15T13:30:00.695Z,34.54
2018-05-15T13:32:28.510Z,34.33
2018-05-15T13:34:56.047Z,33.61
2018-05-15T13:37:23.558Z,33.61
2018-05-15T13:39:51.415Z,34.64
2018-05-15T13:42:18.962Z,32.98
2018-05-15T13:44:46.543Z,32.80
2018-05-15T13:47:14.097Z,32.27
2018-05-15T13:49:41.661Z,32.41
2018-05-15T13:52:09.189Z,33.51
2018-05-15T13:54:36.965Z,33.87
2018-05-15T13:57:04.484Z,33.90
2018-05-15T13:59:32.009Z,33.78
2018-05-15T14:01:59.552Z,33.98
2018-05-15T14:04:27.081Z,33.04
2018-05-15T14:06:54.600Z,33.88
2018-05-15T14:09:22.424Z,33.08
2018-05-15T14:11:49.941Z,33.12
2018-05-15T14:14:17.461Z,33.11
2018-05-15T14:16:45.026Z,32.69
2018-05-15T14:19:12.573Z,33.22
2018-05-15T14:21:40.181Z,33.08
2018-05-15T14:24:07.746Z,32.81
2018-05-15T14:26:35.268Z,32.80
2018-05-15T14:29:02.800Z,33.64
2018-05-15T14:31:31.106Z,33.86
2018-05-15T14:33:58.875Z,33.38
2018-05-15T14:36:26.388Z,33.03
2018-05-15T14:38:54.179Z,32.58
2018-05-15T14:44:25.881Z,31.58
2018-05-15T14:46:53.620Z,31.54
2018-05-15T14:49:21.160Z,31.59
2018-05-15T14:51:48.921Z,32.01
2018-05-15T14:54:16.433Z,30.61
2018-05-15T14:56:44.038Z,29.63
2018-05-15T14:59:11.580Z,29.28
2018-05-15T15:01:39.098Z,29.21
2018-05-15T15:04:07.354Z,29.38
2018-05-15T15:06:34.913Z,28.89
2018-05-15T15:09:02.476Z,29.86
2018-05-15T15:11:30.135Z,30.48
2018-05-15T15:13:57.717Z,30.08
2018-05-15T15:16:25.246Z,30.46
2018-05-15T15:18:52.816Z,30.25
2018-05-15T15:21:20.671Z,29.11
2018-05-15T15:23:48.850Z,29.21
2018-05-15T15:26:16.720Z,29.14
2018-05-15T15:28:44.587Z,28.50
2018-05-15T15:31:12.102Z,27.55
2018-05-15T15:33:39.632Z,27.44
2018-05-15T15:36:07.443Z,26.72
2018-05-15T15:38:35.130Z,26.89
2018-05-15T15:41:02.894Z,26.80
2018-05-15T15:43:30.881Z,26.60
2018-05-15T15:45:58.480Z,26.59
2018-05-15T15:48:26.014Z,26.27
2018-05-15T15:50:53.728Z,25.92
2018-05-15T15:53:21.244Z,25.38
2018-05-15T15:55:48.851Z,25.48
2018-05-15T15:58:16.509Z,25.78
2018-05-15T16:00:44.035Z,25.52
2018-05-15T16:03:11.560Z,25.11
2018-05-15T16:05:39.200Z,23.76
2018-05-15T16:08:06.749Z,22.93
2018-05-15T16:10:34.277Z,22.78
2018-05-15T16:13:02.284Z,22.61
2018-05-15T16:15:29.886Z,22.95
2018-05-15T16:17:57.412Z,23.25
2018-05-15T16:20:25.571Z,23.39
2018-05-15T16:22:53.268Z,23.59
2018-05-15T16:25:21.752Z,23.20
2018-05-15T16:27:49.903Z,22.88
2018-05-15T16:30:17.541Z,22.79
2018-05-15T16:32:45.226Z,22.68
2018-05-15T16:35:12.976Z,22.58
2018-05-15T16:37:40.557Z,22.62
2018-05-15T16:40:08.130Z,22.28
2018-05-15T16:42:35.832Z,22.41
2018-05-15T16:45:03.528Z,22.46
2018-05-15T16:47:31.233Z,22.65
2018-05-15T16:49:58.769Z,22.79
2018-05-15T16:52:26.335Z,22.42
2018-05-15T16:54:53.909Z,22.48
2018-05-15T16:57:21.843Z,22.70
2018-05-15T16:59:49.515Z,22.83
2018-05-15T17:02:17.387Z,22.77
2018-05-15T17:04:45.163Z,22.88
2018-05-15T17:07:12.724Z,22.82
2018-05-15T17:09:40.242Z,22.77
2018-05-15T17:12:07.780Z,22.68
2018-05-15T17:14:35.468Z,22.84
2018-05-15T17:17:02.989Z,22.81
2018-05-15T17:21:58.344Z,22.48
2018-05-15T17:24:25.864Z,22.45
2018-05-15T17:26:53.561Z,22.14
2018-05-15T17:29:21.145Z,21.53
2018-05-15T17:31:48.664Z,20.84
2018-05-15T17:34:16.248Z,20.67
2018-05-15T17:36:43.801Z,20.33
2018-05-15T17:39:11.583Z,19.96
2018-05-15T17:41:39.864Z,20.10
2018-05-15T17:44:08.645Z,19.68
2018-05-15T17:46:36.367Z,19.87
2018-05-15T17:49:04.481Z,19.44
2018-05-15T17:51:32.133Z,19.46
2018-05-15T17:54:00.011Z,19.44
2018-05-15T17:56:27.876Z,19.13
2018-05-15T17:58:55.540Z,19.34
2018-05-15T18:01:23.203Z,19.31
2018-05-15T18:03:50.967Z,19.36
2018-05-15T18:06:19.737Z,19.19
2018-05-15T18:08:47.578Z,19.37
2018-05-15T18:11:15.590Z,19.45
2018-05-15T18:13:43.454Z,19.35
2018-05-15T18:16:11.134Z,19.60
2018-05-15T18:18:39.290Z,19.58
2018-05-15T18:21:07.202Z,19.43
2018-05-15T18:23:35.125Z,19.24
2018-05-15T18:26:03.199Z,19.18
2018-05-15T18:28:31.166Z,19.32
2018-05-15T18:30:59.033Z,19.34
2018-05-15T18:33:27.120Z,19.16
2018-05-15T18:35:55.074Z,19.12
2018-05-15T18:38:22.940Z,19.07
2018-05-15T18:40:51.253Z,18.82
2018-05-15T18:43:19.133Z,18.80
2018-05-15T18:45:47.053Z,18.60
2018-05-15T18:48:15.243Z,18.59
2018-05-15T18:50:43.216Z,18.50
2018-05-15T18:53:11.263Z,18.42
2018-05-15T18:55:40.212Z,18.35
2018-05-15T18:58:08.205Z,18.33
2018-05-15T19:00:36.197Z,18.30
2018-05-15T19:03:04.371Z,18.30
2018-05-15T19:05:32.443Z,18.30
2018-05-15T19:08:00.537Z,18.32
2018-05-15T19:10:28.687Z,18.32
2018-05-15T19:12:58.227Z,18.33
2018-05-15T19:15:26.365Z,18.31
2018-05-15T19:17:54.766Z,18.29
2018-05-15T19:20:23.123Z,18.30
2018-05-15T19:22:51.706Z,18.29
2018-05-15T19:25:19.860Z,18.27
2018-05-15T19:27:47.660Z,18.22
2018-05-15T19:30:15.614Z,18.15
2018-05-15T19:32:43.761Z,18.16
2018-05-15T19:35:11.756Z,18.18
2018-05-15T19:37:40.954Z,18.10
2018-05-15T19:40:13.956Z,18.07
2018-05-15T19:42:41.808Z,18.08
2018-05-15T19:45:09.678Z,18.17
2018-05-15T19:47:37.964Z,18.18
2018-05-15T19:50:06.240Z,18.11
2018-05-15T19:52:34.174Z,18.21
2018-05-15T19:55:02.391Z,18.23
2018-05-15T19:57:30.446Z,18.13
2018-05-15T19:59:59.127Z,18.19
2018-05-15T20:02:27.096Z,18.20
2018-05-15T20:04:54.968Z,18.18
2018-05-15T20:07:23.034Z,18.22
2018-05-15T20:09:51.002Z,18.20
2018-05-15T20:12:18.868Z,18.01
2018-05-15T20:14:46.705Z,17.91
2018-05-15T20:17:15.231Z,18.04
2018-05-15T20:19:43.100Z,17.86
2018-05-15T20:22:11.052Z,17.81
2018-05-15T20:24:40.250Z,17.82
2018-05-15T20:27:11.618Z,17.43
2018-05-15T20:29:40.286Z,17.41
2018-05-15T20:32:09.575Z,17.48
2018-05-15T20:34:37.450Z,17.58
2018-05-15T20:37:08.129Z,17.68
2018-05-15T20:39:36.051Z,17.73
2018-05-15T20:42:04.338Z,17.77
2018-05-15T20:44:32.723Z,17.86
2018-05-15T20:47:00.677Z,17.87
2018-05-15T20:49:28.520Z,17.75
2018-05-15T20:51:57.126Z,17.75
2018-05-15T20:54:25.007Z,17.42
2018-05-15T20:56:52.987Z,17.17
2018-05-15T20:59:21.552Z,17.03
2018-05-15T21:01:49.677Z,17.06
2018-05-15T21:04:17.584Z,17.30
2018-05-15T21:06:45.614Z,17.33
2018-05-15T21:09:13.523Z,17.38
2018-05-15T21:11:41.389Z,17.49
2018-05-15T21:14:09.562Z,17.37
2018-05-15T21:16:37.839Z,17.49
2018-05-15T21:19:05.605Z,17.49
2018-05-15T21:21:33.738Z,17.44
2018-05-15T21:24:01.607Z,17.51
2018-05-15T21:26:29.510Z,17.43
2018-05-15T21:28:57.271Z,17.06
2018-05-15T21:31:24.936Z,17.03
2018-05-15T21:33:52.550Z,17.01
2018-05-15T21:36:20.247Z,16.95
2018-05-15T21:38:48.026Z,16.88
2018-05-15T21:41:16.575Z,17.10
2018-05-15T21:43:44.990Z,17.17
2018-05-15T21:46:12.809Z,17.10
2018-05-15T21:48:40.477Z,17.01
2018-05-15T21:51:08.380Z,17.08
2018-05-15T21:53:36.042Z,17.09
2018-05-15T21:56:03.592Z,16.96
2018-05-15T21:58:31.560Z,16.92
2018-05-15T22:01:00.052Z,16.96
2018-05-15T22:03:27.704Z,16.80
2018-05-15T22:05:55.289Z,16.90
2018-05-15T22:08:22.817Z,16.47
2018-05-15T22:10:51.996Z,16.16
2018-05-15T22:13:31.565Z,16.35
2018-05-15T22:16:10.988Z,15.95
2018-05-15T22:18:50.656Z,15.69
2018-05-15T22:21:29.973Z,16.05
2018-05-15T22:23:57.220Z,15.72
2018-05-15T22:26:24.740Z,15.52
2018-05-15T22:28:52.269Z,15.61
2018-05-15T22:31:19.999Z,15.77
2018-05-15T22:33:47.512Z,15.93
2018-05-15T22:36:15.037Z,15.61
2018-05-15T22:38:42.603Z,15.83
2018-05-15T22:41:10.129Z,15.45
2018-05-15T22:43:37.673Z,15.81
2018-05-15T22:46:05.368Z,16.04
2018-05-15T22:48:32.892Z,15.94
2018-05-15T22:51:00.429Z,16.11
2018-05-15T22:53:28.359Z,15.65
2018-05-15T22:55:55.892Z,15.91
2018-05-15T22:58:23.417Z,16.11
2018-05-15T23:00:51.224Z,15.95
2018-05-15T23:03:18.748Z,16.14
2018-05-15T23:05:46.268Z,16.36
2018-05-15T23:08:14.127Z,16.31
2018-05-15T23:10:41.647Z,16.46
2018-05-15T23:13:09.173Z,16.41
2018-05-15T23:15:36.890Z,16.37
2018-05-15T23:18:04.413Z,16.20
2018-05-15T23:20:31.973Z,16.47
2018-05-15T23:22:59.677Z,16.45
2018-05-15T23:25:27.192Z,16.42
2018-05-15T23:27:54.720Z,16.51
2018-05-15T23:30:22.453Z,16.29
2018-05-15T23:32:49.978Z,16.39
2018-05-15T23:35:17.516Z,16.37
2018-05-15T23:37:45.333Z,16.39
2018-05-15T23:40:12.863Z,15.97
2018-05-15T23:42:40.391Z,16.18
2018-05-15T23:45:08.084Z,16.26
2018-05-15T23:47:35.610Z,16.41
2018-05-15T23:50:03.233Z,16.41
2018-05-15T23:52:30.800Z,16.42
2018-05-15T23:54:58.329Z,16.36
2018-05-15T23:57:25.852Z,16.40
2018-05-15T23:59:53.565Z,16.47
